Time;durP1;ratioP1;P1;durP2;ratioP2;P2;SDS_P1;SDS_P2;PMS_P1;PMS_P2;Temp;Humidity;BMP_temperature;BMP_pressure;BME280_temperature;BME280_humidity;BME280_pressure;Samples;Min_cycle;Max_cycle;Signal;HPM_P1;HPM_P2
2021/03/22 00:00:52;;;;;;;17.27;4.93;;;5.50;99.90;;;;;;5041787;28;20385;-75
2021/03/22 00:03:18;;;;;;;;;;;5.50;99.90;;;;;;5060159;28;20115;-74
2021/03/22 00:05:44;;;;;;;21.88;4.90;;;5.50;99.90;;;;;;5060748;28;20387;-75
2021/03/22 00:08:10;;;;;;;27.45;5.53;;;5.50;99.90;;;;;;5054467;28;20116;-75
2021/03/22 00:10:40;;;;;;;25.40;5.63;;;5.50;99.90;;;;;;5057084;28;20108;-76
2021/03/22 00:13:05;;;;;;;29.83;6.80;;;5.40;99.90;;;;;;5051817;28;20115;-75
2021/03/22 00:15:33;;;;;;;26.83;5.10;;;5.40;99.90;;;;;;5049022;28;20111;-76
2021/03/22 00:17:59;;;;;;;24.33;7.00;;;5.40;99.90;;;;;;5053883;28;20553;-74
2021/03/22 00:20:26;;;;;;;25.52;5.10;;;5.40;99.90;;;;;;5068808;28;20021;-73
2021/03/22 00:22:51;;;;;;;21.08;4.55;;;5.30;99.90;;;;;;5071818;28;20095;-74
2021/03/22 00:25:18;;;;;;;23.45;5.88;;;5.30;99.90;;;;;;5066912;28;20103;-73
2021/03/22 00:27:44;;;;;;;24.42;6.13;;;5.40;99.90;;;;;;5039630;28;20388;-74
2021/03/22 00:30:15;;;;;;;29.85;4.85;;;5.30;99.90;;;;;;5042784;28;20025;-74
2021/03/22 00:32:40;;;;;;;31.02;6.13;;;5.30;99.90;;;;;;5066345;28;20420;-73
2021/03/22 00:35:06;;;;;;;26.60;5.47;;;5.30;99.90;;;;;;5056802;28;20043;-74
2021/03/22 00:37:32;;;;;;;22.38;5.57;;;5.40;99.90;;;;;;5049943;28;20032;-74
2021/03/22 00:39:57;;;;;;;22.73;4.85;;;5.40;99.90;;;;;;5052753;28;20405;-76
2021/03/22 00:42:23;;;;;;;26.02;4.82;;;5.50;99.90;;;;;;5041982;28;20025;-75
2021/03/22 00:44:51;;;;;;;22.65;5.13;;;5.50;99.90;;;;;;5052752;28;20033;-76
2021/03/22 00:47:16;;;;;;;21.60;5.38;;;5.50;99.90;;;;;;5061919;28;20033;-76
2021/03/22 00:49:42;;;;;;;19.17;4.95;;;5.50;99.90;;;;;;5047306;28;20090;-75
2021/03/22 00:52:10;;;;;;;26.65;4.63;;;5.40;99.90;;;;;;5053972;28;20028;-74
2021/03/22 00:54:38;;;;;;;22.10;5.40;;;5.40;99.90;;;;;;5047549;28;20506;-74
2021/03/22 00:57:04;;;;;;;19.13;5.10;;;5.40;99.90;;;;;;5044585;28;20375;-75
2021/03/22 00:59:30;;;;;;;25.45;5.50;;;5.40;99.90;;;;;;5052362;28;20032;-75
2021/03/22 01:01:56;;;;;;;24.50;5.90;;;5.40;99.90;;;;;;5053623;28;20564;-74
2021/03/22 01:04:21;;;;;;;27.25;5.72;;;5.30;99.90;;;;;;5072046;28;20025;-75
2021/03/22 01:06:47;;;;;;;28.50;5.55;;;5.40;99.90;;;;;;5052706;28;20032;-75
2021/03/22 01:09:12;;;;;;;16.90;4.65;;;5.30;99.90;;;;;;5041017;28;20085;-75
2021/03/22 01:11:38;;;;;;;24.95;5.40;;;5.30;99.90;;;;;;5071004;28;20021;-74
2021/03/22 01:14:04;;;;;;;25.23;6.00;;;5.30;99.90;;;;;;5074367;28;20481;-75
2021/03/22 01:16:34;;;;;;;30.08;5.13;;;5.30;99.90;;;;;;5067440;28;20037;-74
2021/03/22 01:19:07;;;;;;;16.90;5.40;;;5.30;99.90;;;;;;5064340;28;20516;-73
2021/03/22 01:21:37;;;;;;;20.23;5.30;;;5.40;99.90;;;;;;5074379;28;20024;-72
2021/03/22 01:24:04;;;;;;;19.73;4.85;;;5.40;99.90;;;;;;5068739;28;20089;-74
2021/03/22 01:26:32;;;;;;;30.83;5.60;;;5.40;99.90;;;;;;5050705;28;20016;-74
2021/03/22 01:28:59;;;;;;;23.77;5.63;;;5.30;99.90;;;;;;5055057;28;20531;-74
2021/03/22 01:31:26;;;;;;;30.25;6.20;;;5.30;99.90;;;;;;5056510;28;20542;-73
2021/03/22 01:33:53;;;;;;;21.67;5.30;;;5.30;99.90;;;;;;5056934;28;20024;-74
2021/03/22 01:36:23;;;;;;;23.30;5.60;;;5.30;99.90;;;;;;5065267;28;20082;-74
2021/03/22 01:38:49;;;;;;;32.72;5.95;;;5.30;99.90;;;;;;5055755;28;20041;-73
2021/03/22 01:41:23;;;;;;;23.63;5.57;;;5.40;99.90;;;;;;5057535;28;20021;-74
2021/03/22 01:44:07;;;;;;;42.92;6.00;;;5.40;99.90;;;;;;5057447;28;20366;-74
2021/03/22 01:46:33;;;;;;;25.60;5.63;;;5.50;99.90;;;;;;5068341;28;20028;-74
2021/03/22 01:49:01;;;;;;;21.35;5.65;;;5.60;99.90;;;;;;5070314;28;20024;-73
2021/03/22 01:51:27;;;;;;;15.13;5.35;;;5.60;99.90;;;;;;5071791;28;20028;-74
2021/03/22 01:53:53;;;;;;;29.48;5.32;;;5.60;99.90;;;;;;5057123;28;20362;-74
2021/03/22 01:56:28;;;;;;;26.77;5.68;;;5.50;99.90;;;;;;5063730;28;20024;-74
2021/03/22 01:58:54;;;;;;;29.88;7.05;;;5.60;99.90;;;;;;5062521;28;20068;-74
2021/03/22 02:01:23;;;;;;;28.38;6.10;;;5.60;99.90;;;;;;5074334;28;20059;-74
2021/03/22 02:03:48;;;;;;;26.10;6.30;;;5.60;99.90;;;;;;5060903;28;20025;-74
2021/03/22 02:06:15;;;;;;;34.72;7.15;;;5.60;99.90;;;;;;5055621;28;20039;-75
2021/03/22 02:08:43;;;;;;;28.05;6.68;;;5.60;99.90;;;;;;5061970;28;20039;-74
2021/03/22 02:11:23;;;;;;;20.92;5.55;;;5.70;99.90;;;;;;5054955;28;20025;-73
2021/03/22 02:13:53;;;;;;;23.73;7.32;;;5.70;99.90;;;;;;5061199;28;20063;-74
2021/03/22 02:16:23;;;;;;;19.13;5.63;;;5.80;99.90;;;;;;5056693;28;20059;-74
2021/03/22 02:19:12;;;;;;;33.15;5.90;;;5.80;99.90;;;;;;5067320;28;20025;-74
2021/03/22 02:22:00;;;;;;;20.40;5.30;;;5.80;99.90;;;;;;5063485;28;20029;-74
2021/03/22 02:24:42;;;;;;;19.08;4.45;;;5.90;99.90;;;;;;5064132;28;20082;-74
2021/03/22 02:27:16;;;;;;;24.13;5.22;;;5.80;99.90;;;;;;5073893;28;20055;-73
2021/03/22 02:29:58;;;;;;;21.08;6.45;;;5.90;99.90;;;;;;5060586;28;20428;-74
2021/03/22 02:32:36;;;;;;;27.95;7.00;;;6.00;99.90;;;;;;5047081;28;20127;-75
2021/03/22 02:35:32;;;;;;;20.95;5.00;;;6.00;99.90;;;;;;5055381;28;20082;-74
2021/03/22 02:38:18;;;;;;;47.78;7.15;;;6.00;99.90;;;;;;5050834;28;20033;-73
2021/03/22 02:40:53;;;;;;;28.02;5.75;;;6.00;99.90;;;;;;5053295;28;20028;-74
2021/03/22 02:43:19;;;;;;;24.65;5.78;;;6.00;99.90;;;;;;5041986;28;20119;-74
2021/03/22 02:45:44;;;;;;;35.88;6.53;;;6.00;99.90;;;;;;5054283;28;20086;-74
2021/03/22 02:48:18;;;;;;;35.97;7.68;;;6.00;99.90;;;;;;5072310;28;20021;-75
2021/03/22 02:50:46;;;;;;;24.48;5.25;;;6.10;99.90;;;;;;5052318;28;20032;-75
2021/03/22 02:53:24;;;;;;;36.75;7.30;;;6.00;99.90;;;;;;5047370;28;20029;-74
2021/03/22 02:56:12;;;;;;;29.30;6.10;;;6.00;99.90;;;;;;5046715;28;20025;-75
2021/03/22 02:58:55;;;;;;;33.38;6.40;;;6.00;99.90;;;;;;5066798;28;20487;-75
2021/03/22 03:01:38;;;;;;;42.72;7.18;;;6.00;99.90;;;;;;5064558;28;20029;-75
2021/03/22 03:04:07;;;;;;;31.90;6.13;;;6.00;99.90;;;;;;5071905;28;20081;-76
2021/03/22 03:06:49;;;;;;;30.88;4.95;;;6.10;99.90;;;;;;5048178;28;20043;-75
2021/03/22 03:09:16;;;;;;;24.33;4.90;;;6.10;99.90;;;;;;5052577;28;20029;-75
2021/03/22 03:11:42;;;;;;;28.33;7.22;;;6.10;99.90;;;;;;5044777;28;20017;-76
2021/03/22 03:14:08;;;;;;;31.80;7.32;;;6.10;99.90;;;;;;5044441;28;20388;-75
2021/03/22 03:16:34;;;;;;;27.30;6.00;;;6.10;99.90;;;;;;5071571;28;20028;-76
2021/03/22 03:19:00;;;;;;;21.90;4.78;;;6.20;99.90;;;;;;5069129;28;20052;-77
2021/03/22 03:21:25;;;;;;;26.63;6.07;;;6.20;99.90;;;;;;5064356;28;20069;-75
2021/03/22 03:23:52;;;;;;;29.27;6.63;;;6.10;99.90;;;;;;5071801;28;20021;-75
2021/03/22 03:26:17;;;;;;;24.02;5.53;;;6.10;99.90;;;;;;5062915;28;20086;-75
2021/03/22 03:28:43;;;;;;;31.33;6.53;;;6.20;99.90;;;;;;5064115;28;20064;-75
2021/03/22 03:31:09;;;;;;;25.38;5.35;;;6.20;99.90;;;;;;5069756;28;20443;-76
2021/03/22 03:33:34;;;;;;;33.45;6.47;;;6.30;99.90;;;;;;5042635;28;20032;-77
2021/03/22 03:36:00;;;;;;;36.80;6.63;;;6.30;99.90;;;;;;5052879;28;20025;-75
2021/03/22 03:38:26;;;;;;;33.22;5.13;;;6.40;99.90;;;;;;5066768;28;20037;-77
2021/03/22 03:40:51;;;;;;;27.88;5.40;;;6.30;99.90;;;;;;5063020;28;20134;-76
2021/03/22 03:43:18;;;;;;;23.92;5.95;;;6.40;99.90;;;;;;5053130;28;20021;-76
2021/03/22 03:45:45;;;;;;;27.88;6.15;;;6.30;99.90;;;;;;5053633;28;20053;-75
2021/03/22 03:48:30;;;;;;;24.98;4.97;;;6.40;99.90;;;;;;5046875;28;20055;-76
2021/03/22 03:51:01;;;;;;;17.70;4.13;;;6.40;99.90;;;;;;5065567;28;20031;-74
2021/03/22 03:53:27;;;;;;;18.42;4.45;;;6.50;99.90;;;;;;5072518;28;20063;-75
2021/03/22 03:55:55;;;;;;;19.80;5.32;;;6.50;99.90;;;;;;5053585;28;20024;-74
2021/03/22 03:58:20;;;;;;;16.80;5.40;;;6.50;99.90;;;;;;5060537;28;20483;-75
2021/03/22 04:00:47;;;;;;;24.73;6.05;;;6.50;99.90;;;;;;5051261;28;20028;-74
2021/03/22 04:03:22;;;;;;;24.42;6.20;;;6.50;99.90;;;;;;5064465;28;20016;-76
2021/03/22 04:05:57;;;;;;;30.38;5.47;;;6.50;99.90;;;;;;5057336;28;20572;-76
2021/03/22 04:08:23;;;;;;;29.23;6.20;;;6.40;99.90;;;;;;5070541;28;20056;-76
2021/03/22 04:10:50;;;;;;;29.08;4.78;;;6.50;99.90;;;;;;5053850;28;20115;-75
2021/03/22 04:13:17;;;;;;;29.45;5.53;;;6.50;99.90;;;;;;5054129;28;20029;-75
2021/03/22 04:15:42;;;;;;;22.30;5.30;;;6.40;99.90;;;;;;5071511;28;20029;-75
2021/03/22 04:18:08;;;;;;;25.25;4.82;;;6.30;99.90;;;;;;5058223;28;20074;-75
2021/03/22 04:20:34;;;;;;;25.83;6.05;;;6.40;99.90;;;;;;5053052;28;20020;-76
2021/03/22 04:22:59;;;;;;;28.55;5.93;;;6.40;99.90;;;;;;5053874;28;20122;-75
2021/03/22 04:25:25;;;;;;;33.00;7.55;;;6.40;99.90;;;;;;5045808;28;20439;-76
2021/03/22 04:27:51;;;;;;;26.65;5.85;;;6.40;99.90;;;;;;5068511;28;20125;-74
2021/03/22 04:30:17;;;;;;;32.65;6.28;;;6.40;99.90;;;;;;5063833;28;20036;-74
2021/03/22 04:32:43;;;;;;;26.27;7.32;;;6.40;99.90;;;;;;5053451;28;20553;-74
2021/03/22 04:35:09;;;;;;;37.08;5.82;;;6.40;99.90;;;;;;5068988;28;20060;-75
2021/03/22 04:37:34;;;;;;;35.13;5.30;;;6.40;99.90;;;;;;5053679;28;20025;-74
2021/03/22 04:40:00;;;;;;;29.75;6.03;;;6.40;99.90;;;;;;5052045;28;20049;-74
2021/03/22 04:42:26;;;;;;;28.38;6.47;;;6.40;99.90;;;;;;5072161;28;20062;-74
2021/03/22 04:44:51;;;;;;;26.85;5.68;;;6.40;99.90;;;;;;5066931;28;20028;-74
2021/03/22 04:47:17;;;;;;;27.00;5.13;;;6.40;99.90;;;;;;5053265;28;20031;-75
2021/03/22 04:49:42;;;;;;;32.95;6.45;;;6.30;99.90;;;;;;5070835;28;20393;-74
2021/03/22 04:52:09;;;;;;;26.50;5.25;;;6.30;99.90;;;;;;5056663;28;20119;-74
2021/03/22 04:54:34;;;;;;;17.02;4.20;;;6.20;99.90;;;;;;5069130;28;20040;-75
2021/03/22 04:57:25;;;;;;;24.13;5.80;;;6.30;99.90;;;;;;5069411;28;20033;-74
2021/03/22 04:59:51;;;;;;;14.90;3.95;;;6.40;99.90;;;;;;5055237;28;20028;-74
2021/03/22 05:02:17;;;;;;;26.75;5.28;;;6.40;99.90;;;;;;5072740;28;20028;-74
2021/03/22 05:04:42;;;;;;;33.25;5.35;;;6.40;99.90;;;;;;5074742;28;20071;-74
2021/03/22 05:07:08;;;;;;;15.63;4.28;;;6.40;99.90;;;;;;5071823;28;20027;-75
2021/03/22 05:09:34;;;;;;;28.90;4.28;;;6.40;99.90;;;;;;5054376;28;20082;-75
2021/03/22 05:11:59;;;;;;;16.95;3.63;;;6.50;99.90;;;;;;5057442;28;20021;-75
2021/03/22 05:14:25;;;;;;;16.63;4.45;;;6.50;99.90;;;;;;5056221;28;20051;-74
2021/03/22 05:16:50;;;;;;;27.00;4.85;;;6.50;99.90;;;;;;5056326;28;20039;-74
2021/03/22 05:19:16;;;;;;;20.30;4.07;;;6.40;99.90;;;;;;5042800;28;20140;-75
2021/03/22 05:21:41;;;;;;;25.50;3.83;;;6.50;99.90;;;;;;5074400;28;20028;-75
2021/03/22 05:24:07;;;;;;;25.73;4.97;;;6.50;99.90;;;;;;5056393;28;20044;-75
2021/03/22 05:26:33;;;;;;;20.00;4.30;;;6.50;99.90;;;;;;5052548;28;20021;-75
2021/03/22 05:28:58;;;;;;;18.23;4.05;;;6.50;99.90;;;;;;5067321;28;20025;-74
2021/03/22 05:31:24;;;;;;;18.30;3.85;;;6.50;99.90;;;;;;5074697;28;20500;-75
2021/03/22 05:33:49;;;;;;;20.15;4.65;;;6.50;99.90;;;;;;5060104;28;20051;-75
2021/03/22 05:36:15;;;;;;;17.85;3.47;;;6.40;99.90;;;;;;5057958;28;20032;-75
2021/03/22 05:38:42;;;;;;;22.83;4.80;;;6.50;99.90;;;;;;5040469;28;20037;-76
2021/03/22 05:41:17;;;;;;;23.60;6.03;;;6.50;99.90;;;;;;5072858;28;20016;-76
2021/03/22 05:43:47;;;;;;;21.20;4.35;;;6.60;99.90;;;;;;5056369;28;20541;-76
2021/03/22 05:46:44;;;;;;;25.80;4.60;;;6.60;99.90;;;;;;5060239;28;20066;-76
2021/03/22 05:49:39;;;;;;;19.10;4.35;;;6.60;99.90;;;;;;5057930;28;20363;-75
2021/03/22 05:52:40;;;;;;;24.88;4.15;;;6.70;99.90;;;;;;5062669;28;20033;-76
2021/03/22 05:55:42;;;;;;;21.38;3.83;;;6.70;99.90;;;;;;5067950;28;20055;-76
2021/03/22 05:58:08;;;;;;;20.80;4.88;;;6.60;99.90;;;;;;5073118;28;20033;-76
2021/03/22 06:01:21;;;;;;;13.60;4.18;;;6.50;99.90;;;;;;5069732;28;20092;-76
2021/03/22 06:04:09;;;;;;;23.77;4.20;;;6.60;99.90;;;;;;5049750;28;20036;-76
2021/03/22 06:06:42;;;;;;;19.27;4.78;;;6.60;99.90;;;;;;5039072;28;20064;-76
2021/03/22 06:09:32;;;;;;;22.25;4.05;;;6.50;99.90;;;;;;5048444;28;20362;-76
2021/03/22 06:12:23;;;;;;;19.38;5.60;;;6.60;99.90;;;;;;5043155;28;20456;-76
2021/03/22 06:15:21;;;;;;;20.48;4.80;;;6.60;99.90;;;;;;5040328;28;20025;-76
2021/03/22 06:17:49;;;;;;;26.80;4.15;;;6.70;99.90;;;;;;5050714;28;20115;-76
2021/03/22 06:20:31;;;;;;;17.38;4.82;;;6.70;99.90;;;;;;5047689;28;20406;-76
2021/03/22 06:23:06;;;;;;;25.10;4.10;;;6.70;99.90;;;;;;5050501;28;20048;-76
2021/03/22 06:25:35;;;;;;;29.10;4.55;;;6.70;99.90;;;;;;5037008;28;20036;-76
2021/03/22 06:28:20;;;;;;;;;;;6.80;99.90;;;;;;5040613;28;20027;-75
2021/03/22 06:31:25;;;;;;;21.55;3.92;;;6.80;99.90;;;;;;5066495;28;20426;-76
2021/03/22 06:34:05;;;;;;;22.73;3.60;;;6.90;99.90;;;;;;4991311;28;20065;-75
2021/03/22 06:36:31;;;;;;;17.60;3.90;;;6.90;99.90;;;;;;4993027;28;20038;-75
2021/03/22 06:39:00;;;;;;;24.65;4.80;;;6.90;99.90;;;;;;5021729;28;20389;-76
2021/03/22 06:41:35;;;;;;;15.60;3.55;;;6.90;99.90;;;;;;5054479;28;20090;-74
2021/03/22 06:44:15;;;;;;;23.05;3.53;;;6.90;99.90;;;;;;5071852;28;20025;-76
2021/03/22 06:47:13;;;;;;;19.15;3.47;;;7.00;99.90;;;;;;5074340;28;20099;-74
2021/03/22 06:49:39;;;;;;;;;;;6.90;99.90;;;;;;5023857;28;20484;-74
2021/03/22 06:52:16;;;;;;;22.77;5.70;;;6.90;99.90;;;;;;5072790;28;19908;-75
2021/03/22 06:54:44;;;;;;;12.20;3.03;;;7.00;99.90;;;;;;5070738;28;20447;-74
2021/03/22 06:57:12;;;;;;;18.55;3.35;;;7.00;99.90;;;;;;5058877;28;20108;-75
2021/03/22 06:59:39;;;;;;;14.10;4.20;;;7.10;99.90;;;;;;5046077;28;20066;-74
2021/03/22 07:02:18;;;;;;;13.35;3.17;;;7.20;99.90;;;;;;5071188;28;20354;-74
2021/03/22 07:04:44;;;;;;;21.17;3.75;;;7.30;99.90;;;;;;5065561;28;20020;-75
2021/03/22 07:07:20;;;;;;;11.00;2.58;;;7.40;99.90;;;;;;5044076;28;20033;-74
2021/03/22 07:09:56;;;;;;;11.18;3.63;;;7.50;99.90;;;;;;5064911;28;20440;-75
2021/03/22 07:12:29;;;;;;;19.90;3.47;;;7.60;99.90;;;;;;5063496;28;20027;-75
2021/03/22 07:15:15;;;;;;;18.67;3.17;;;7.70;99.90;;;;;;5070371;28;20027;-74
2021/03/22 07:17:42;;;;;;;15.45;2.47;;;7.70;99.90;;;;;;5068752;28;20031;-75
2021/03/22 07:20:16;;;;;;;14.98;2.88;;;7.70;99.90;;;;;;5071149;28;20028;-75
2021/03/22 07:22:42;;;;;;;15.23;4.07;;;7.70;99.90;;;;;;5059125;28;20020;-75
2021/03/22 07:25:29;;;;;;;13.88;2.55;;;7.80;99.90;;;;;;5069813;28;20025;-74
2021/03/22 07:28:06;;;;;;;15.98;2.50;;;7.80;99.90;;;;;;5057029;28;20039;-75
2021/03/22 07:30:50;;;;;;;16.17;3.10;;;7.80;99.90;;;;;;5046072;28;20025;-75
2021/03/22 07:33:54;;;;;;;14.00;2.10;;;7.70;99.90;;;;;;5042321;28;20051;-75
2021/03/22 07:36:48;;;;;;;18.02;2.85;;;7.50;99.90;;;;;;5070207;28;20510;-75
2021/03/22 07:39:44;;;;;;;12.38;4.13;;;7.60;99.90;;;;;;5065033;28;20135;-75
2021/03/22 07:42:29;;;;;;;14.10;2.22;;;7.60;99.90;;;;;;5063850;28;20021;-76
2021/03/22 07:45:18;;;;;;;9.05;3.05;;;7.70;99.90;;;;;;5041012;28;20076;-75
2021/03/22 07:48:07;;;;;;;6.50;2.45;;;7.60;99.90;;;;;;5065066;28;20037;-76
2021/03/22 07:50:57;;;;;;;6.45;2.40;;;7.50;99.90;;;;;;5056404;28;20155;-76
2021/03/22 07:53:45;;;;;;;9.40;2.53;;;7.50;99.90;;;;;;5021450;28;20396;-75
2021/03/22 07:56:10;;;;;;;5.90;2.10;;;7.50;99.90;;;;;;5070467;28;20040;-75
2021/03/22 07:58:51;;;;;;;9.25;1.98;;;7.40;99.90;;;;;;5053976;28;20044;-75
2021/03/22 08:01:26;;;;;;;4.70;1.42;;;7.30;99.90;;;;;;5068828;28;20476;-75
2021/03/22 08:04:18;;;;;;;3.65;1.17;;;7.50;99.90;;;;;;5070836;28;20443;-75
2021/03/22 08:06:58;;;;;;;2.40;0.85;;;7.70;99.90;;;;;;5071830;28;20376;-74
2021/03/22 08:09:46;;;;;;;5.53;1.13;;;8.00;99.90;;;;;;5055450;28;20025;-75
2021/03/22 08:12:29;;;;;;;3.83;0.70;;;8.20;99.90;;;;;;5070850;28;20031;-75
2021/03/22 08:15:21;;;;;;;2.08;0.40;;;8.40;99.90;;;;;;5064054;28;20020;-74
2021/03/22 08:18:02;;;;;;;1.80;0.43;;;8.40;99.90;;;;;;5060502;28;20044;-73
2021/03/22 08:20:34;;;;;;;3.80;0.50;;;8.50;99.90;;;;;;5053332;28;20373;-73
2021/03/22 08:23:18;;;;;;;2.83;0.60;;;8.70;99.90;;;;;;5053919;28;20020;-73
2021/03/22 08:25:55;;;;;;;2.17;0.52;;;8.90;99.90;;;;;;5057245;28;20032;-73
2021/03/22 08:28:38;;;;;;;1.03;0.60;;;9.10;99.90;;;;;;5073704;28;20051;-73
2021/03/22 08:31:07;;;;;;;3.30;0.65;;;9.00;99.90;;;;;;5075584;28;20028;-73
2021/03/22 08:33:39;;;;;;;1.08;0.60;;;8.60;99.90;;;;;;5075575;28;20028;-73
2021/03/22 08:36:42;;;;;;;4.20;0.70;;;8.30;99.90;;;;;;5057168;28;20409;-73
2021/03/22 08:39:20;;;;;;;1.33;0.40;;;8.10;99.90;;;;;;5075388;28;20110;-73
2021/03/22 08:42:01;;;;;;;1.33;0.40;;;8.10;99.90;;;;;;5050896;28;20044;-72
2021/03/22 08:44:56;;;;;;;3.42;0.47;;;8.20;99.90;;;;;;5055737;28;20078;-72
2021/03/22 08:47:59;;;;;;;3.25;0.68;;;8.40;99.90;;;;;;5051809;28;20033;-73
2021/03/22 08:50:28;;;;;;;3.55;0.70;;;8.70;99.90;;;;;;5040584;28;20029;-72
2021/03/22 08:52:58;;;;;;;3.10;0.40;;;8.70;99.90;;;;;;5060796;28;20089;-73
2021/03/22 08:55:27;;;;;;;2.67;1.40;;;8.60;99.90;;;;;;5073922;28;20450;-73
2021/03/22 08:58:05;;;;;;;3.88;0.40;;;8.60;99.90;;;;;;5056010;28;20028;-74
2021/03/22 09:00:45;;;;;;;5.27;0.73;;;8.60;99.90;;;;;;5055027;28;20040;-74
2021/03/22 09:03:14;;;;;;;4.63;0.57;;;8.80;99.90;;;;;;5074959;28;20021;-72
2021/03/22 09:05:59;;;;;;;5.90;0.70;;;9.20;99.90;;;;;;5069548;28;20082;-72
2021/03/22 09:08:25;;;;;;;2.05;0.43;;;9.20;99.90;;;;;;5074980;28;20028;-72
2021/03/22 09:10:52;;;;;;;0.77;0.52;;;9.10;99.90;;;;;;5071020;28;20092;-74
2021/03/22 09:13:26;;;;;;;3.60;0.70;;;9.00;99.90;;;;;;5055809;28;20124;-75
2021/03/22 09:16:25;;;;;;;3.75;0.70;;;8.60;99.90;;;;;;5057359;28;20023;-72
2021/03/22 09:19:08;;;;;;;1.75;0.55;;;8.60;99.90;;;;;;5018688;28;20124;-73
2021/03/22 09:21:39;;;;;;;4.55;1.52;;;8.50;99.90;;;;;;5062486;28;20037;-72
2021/03/22 09:24:39;;;;;;;5.07;0.70;;;8.70;99.90;;;;;;5073195;28;20081;-75
2021/03/22 09:27:29;;;;;;;4.00;1.05;;;8.60;99.90;;;;;;5072527;28;20510;-75
2021/03/22 09:30:25;;;;;;;2.42;0.68;;;8.60;99.90;;;;;;5048213;28;20355;-76
2021/03/22 09:32:51;;;;;;;1.85;0.57;;;8.60;99.90;;;;;;5054286;28;20380;-74
2021/03/22 09:35:16;;;;;;;2.03;0.50;;;8.50;99.90;;;;;;5055504;28;20032;-76
2021/03/22 09:37:54;;;;;;;7.80;0.47;;;8.50;99.90;;;;;;5056421;28;20052;-76
2021/03/22 09:40:38;;;;;;;5.00;0.63;;;8.60;99.90;;;;;;5074404;28;20038;-76
2021/03/22 09:45:38;;;;;;;2.80;0.60;;;8.60;99.90;;;;;;5073802;28;20021;-76
2021/03/22 09:48:15;;;;;;;2.92;0.70;;;8.70;99.90;;;;;;5077513;28;20103;-76
2021/03/22 09:50:52;;;;;;;1.63;0.50;;;8.70;99.90;;;;;;5051729;28;20063;-73
2021/03/22 09:53:31;;;;;;;2.10;0.70;;;8.80;99.90;;;;;;5077493;28;20388;-75
2021/03/22 09:56:05;;;;;;;2.60;0.60;;;8.60;99.90;;;;;;5057194;28;20064;-74
2021/03/22 09:58:37;;;;;;;0.85;0.68;;;8.50;99.90;;;;;;5075249;28;20111;-75
2021/03/22 10:01:05;;;;;;;5.70;0.98;;;8.40;99.90;;;;;;5053739;28;20032;-77
2021/03/22 10:03:39;;;;;;;;;;;8.40;99.90;;;;;;5047488;28;20024;-74
2021/03/22 10:06:28;;;;;;;0.52;0.52;;;8.40;99.90;;;;;;5066051;28;19915;-76
2021/03/22 10:08:56;;;;;;;2.92;0.38;;;8.20;99.90;;;;;;5072490;28;20465;-76
2021/03/22 10:11:32;;;;;;;0.88;0.20;;;8.10;99.90;;;;;;5075094;28;20435;-76
2021/03/22 10:14:03;;;;;;;0.70;0.40;;;8.10;99.90;;;;;;5073461;28;20082;-76
2021/03/22 10:16:39;;;;;;;3.40;0.50;;;8.20;99.90;;;;;;5060108;28;20063;-77
2021/03/22 10:19:14;;;;;;;7.40;0.80;;;8.20;99.90;;;;;;5040067;28;20032;-78
2021/03/22 10:21:52;;;;;;;2.00;0.43;;;8.30;99.90;;;;;;5054948;28;20020;-76
2021/03/22 10:24:22;;;;;;;;;;;8.50;99.90;;;;;;5053095;28;20075;-75
2021/03/22 10:26:52;;;;;;;3.53;0.52;;;8.60;99.90;;;;;;5065201;28;19956;-75
2021/03/22 10:29:21;;;;;;;0.50;0.50;;;8.80;99.90;;;;;;5049828;28;20039;-78
2021/03/22 10:32:19;;;;;;;2.05;0.60;;;9.00;99.90;;;;;;5061147;28;20056;-77
2021/03/22 10:34:53;;;;;;;6.47;1.10;;;9.20;99.90;;;;;;5073778;28;20332;-77
2021/03/22 10:37:38;;;;;;;4.88;0.50;;;9.50;99.90;;;;;;5055978;28;20374;-77
2021/03/22 10:40:24;;;;;;;4.75;0.50;;;9.60;99.90;;;;;;5056345;28;20045;-77
2021/03/22 10:42:53;;;;;;;1.55;0.50;;;9.90;99.90;;;;;;5050902;28;20555;-78
2021/03/22 10:45:28;;;;;;;1.00;0.52;;;10.10;99.90;;;;;;5073584;28;20476;-75
2021/03/22 10:47:56;;;;;;;1.73;0.60;;;10.20;99.90;;;;;;5056341;28;20028;-76
2021/03/22 10:50:31;;;;;;;1.33;0.68;;;10.30;99.90;;;;;;5072625;28;20029;-76
2021/03/22 10:53:15;;;;;;;1.35;0.65;;;10.50;99.90;;;;;;5064821;28;20082;-79
2021/03/22 10:55:43;;;;;;;1.05;0.50;;;10.50;99.90;;;;;;5067160;28;20034;-79
2021/03/22 10:58:17;;;;;;;2.70;0.50;;;10.30;99.90;;;;;;5050843;28;20374;-78
2021/03/22 11:00:45;;;;;;;1.67;1.10;;;10.10;99.90;;;;;;5055454;28;20075;-77
2021/03/22 11:03:24;;;;;;;1.40;0.55;;;9.70;99.90;;;;;;5055924;28;20017;-75
2021/03/22 11:05:50;;;;;;;3.05;0.40;;;9.20;99.90;;;;;;5073167;28;20012;-78
2021/03/22 11:08:31;;;;;;;1.85;0.63;;;9.20;99.90;;;;;;5074207;28;20094;-77
2021/03/22 11:11:03;;;;;;;3.30;1.10;;;9.00;99.90;;;;;;5045807;28;20041;-77
2021/03/22 11:13:32;;;;;;;2.05;0.60;;;9.00;99.90;;;;;;5047340;28;20036;-77
2021/03/22 11:15:58;;;;;;;1.35;0.40;;;9.00;99.90;;;;;;5061955;28;20029;-77
2021/03/22 11:18:25;;;;;;;1.42;0.47;;;9.00;99.90;;;;;;5055355;28;20037;-78
2021/03/22 11:20:53;;;;;;;0.83;0.40;;;8.90;99.90;;;;;;5072715;28;20047;-76
2021/03/22 11:23:40;;;;;;;2.28;0.73;;;8.90;99.90;;;;;;5071561;28;20086;-76
2021/03/22 11:26:30;;;;;;;1.25;0.32;;;8.90;99.90;;;;;;5059722;28;20056;-76
2021/03/22 11:29:17;;;;;;;0.65;0.60;;;9.00;99.90;;;;;;5074893;28;20032;-76
2021/03/22 11:31:46;;;;;;;1.10;0.55;;;9.10;99.90;;;;;;5054522;28;20036;-76
2021/03/22 11:34:14;;;;;;;1.08;0.40;;;8.80;99.90;;;;;;5054566;28;20060;-78
2021/03/22 11:36:43;;;;;;;1.63;0.68;;;8.90;99.90;;;;;;5072872;28;20392;-76
2021/03/22 11:39:18;;;;;;;2.22;0.63;;;9.00;99.90;;;;;;5069860;28;20033;-76
2021/03/22 11:41:54;;;;;;;3.70;1.55;;;9.10;99.90;;;;;;5072039;28;20020;-77
2021/03/22 11:44:23;;;;;;;1.77;0.85;;;9.10;99.90;;;;;;5065375;28;20066;-77
2021/03/22 11:46:52;;;;;;;5.10;0.90;;;9.00;99.90;;;;;;5044634;28;20045;-77
2021/03/22 11:49:36;;;;;;;2.90;0.80;;;9.20;99.90;;;;;;5045976;28;20465;-74
2021/03/22 11:52:03;;;;;;;4.95;1.30;;;9.20;99.90;;;;;;5054184;28;20041;-74
2021/03/22 11:54:31;;;;;;;1.83;1.17;;;9.20;99.90;;;;;;5073323;28;20029;-75
2021/03/22 11:57:01;;;;;;;2.53;0.98;;;9.20;99.90;;;;;;5049054;28;20029;-76
2021/03/22 11:59:27;;;;;;;3.92;0.98;;;9.10;99.90;;;;;;5043987;28;20037;-77
2021/03/22 12:02:13;;;;;;;1.50;1.20;;;9.00;99.90;;;;;;5048196;28;20534;-77
2021/03/22 12:04:57;;;;;;;7.85;1.08;;;9.00;99.90;;;;;;5060221;28;20021;-74
2021/03/22 12:07:33;;;;;;;1.25;0.90;;;9.20;99.90;;;;;;5045167;28;20070;-75
2021/03/22 12:09:59;;;;;;;0.85;0.73;;;9.30;99.90;;;;;;5067281;28;20033;-75
2021/03/22 12:12:25;;;;;;;6.18;1.23;;;9.20;99.90;;;;;;5055489;28;20031;-76
2021/03/22 12:14:50;;;;;;;2.85;0.60;;;9.40;99.90;;;;;;5072529;28;20031;-76
2021/03/22 12:17:23;;;;;;;10.68;1.33;;;9.40;99.90;;;;;;5055098;28;20055;-76
2021/03/22 12:19:49;;;;;;;3.13;1.10;;;9.60;99.90;;;;;;5054765;28;20434;-76
2021/03/22 12:22:18;;;;;;;1.15;0.80;;;9.60;99.90;;;;;;5055109;28;20031;-76
2021/03/22 12:24:44;;;;;;;2.35;0.63;;;9.60;99.90;;;;;;5073309;28;20016;-76
2021/03/22 12:27:15;;;;;;;0.50;0.50;;;9.40;99.90;;;;;;5053875;28;20127;-75
2021/03/22 12:29:41;;;;;;;0.70;0.70;;;9.40;99.90;;;;;;5071756;28;20415;-74
2021/03/22 12:32:13;;;;;;;2.25;0.77;;;9.30;99.90;;;;;;5052955;28;20043;-75
2021/03/22 12:34:39;;;;;;;0.65;0.60;;;9.20;99.90;;;;;;5057129;28;20083;-75
2021/03/22 12:37:05;;;;;;;1.40;0.73;;;9.10;99.90;;;;;;5054072;28;20033;-75
2021/03/22 12:39:34;;;;;;;5.18;1.55;;;9.20;99.90;;;;;;5071622;28;20048;-75
2021/03/22 12:42:06;;;;;;;3.42;1.10;;;9.10;99.90;;;;;;5044398;28;20045;-76
2021/03/22 12:44:33;;;;;;;4.90;0.70;;;9.10;99.90;;;;;;5057110;28;20021;-75
2021/03/22 12:46:58;;;;;;;4.72;1.27;;;9.00;99.90;;;;;;5041879;28;20494;-75
2021/03/22 12:49:24;;;;;;;4.93;1.17;;;9.00;99.90;;;;;;5064907;28;20058;-75
2021/03/22 12:51:51;;;;;;;1.13;0.88;;;9.00;99.90;;;;;;5072127;28;20059;-74
2021/03/22 12:54:17;;;;;;;2.95;0.70;;;9.00;99.90;;;;;;5053381;28;20040;-75
2021/03/22 12:56:43;;;;;;;1.85;0.73;;;8.90;99.90;;;;;;5072019;28;20033;-74
2021/03/22 12:59:32;;;;;;;1.70;0.77;;;8.80;99.90;;;;;;5072708;28;20442;-74
2021/03/22 13:02:00;;;;;;;2.65;1.00;;;8.70;99.90;;;;;;5070672;28;20077;-76
2021/03/22 13:04:27;;;;;;;1.42;0.68;;;8.70;99.90;;;;;;5056747;28;20036;-73
2021/03/22 13:06:52;;;;;;;2.90;0.82;;;8.80;99.90;;;;;;5075152;28;20029;-75
2021/03/22 13:09:18;;;;;;;1.98;0.68;;;8.90;99.90;;;;;;5053584;28;20116;-75
2021/03/22 13:11:44;;;;;;;1.30;0.90;;;9.00;99.90;;;;;;5076038;28;20040;-73
2021/03/22 13:14:17;;;;;;;2.78;1.90;;;9.10;99.90;;;;;;5048682;28;20036;-76
2021/03/22 13:16:44;;;;;;;1.40;1.02;;;9.20;99.90;;;;;;5076893;28;20090;-74
2021/03/22 13:19:10;;;;;;;1.63;0.88;;;9.20;99.90;;;;;;5074208;28;20031;-76
2021/03/22 13:21:37;;;;;;;2.85;1.17;;;9.20;99.90;;;;;;5076057;28;20467;-76
2021/03/22 13:24:03;;;;;;;5.57;1.02;;;9.30;99.90;;;;;;5069398;28;20055;-75
2021/03/22 13:26:28;;;;;;;4.78;0.82;;;9.20;99.90;;;;;;5056352;28;20044;-74